XA00 weather

Prose Field
Justin, Texas, United States

Public forecast

Using degrees Fahrenheit for public forecast. Weather courtesy of forecast.io.

METAR (pilot weather report)

Closest report is Denton Municipal Airport, 5.2 nm (9.7 km) NE. Retrieved 2019/07/17 13:53 UTC (22 minutes ago):

KDTO 171353Z 19013KT 10SM CLR 28/22 A3003 RMK AO2 SLP157 T02780217

TAF (pilot weather forecast)

Closest forecast is Fort Worth Alliance Airport, 9.8 nm (18.1 km) SSW. Retrieved 2019/07/17 12:33 UTC (2 hours ago):

TAF KAFW 171131Z 1712/1812 18012KT P6SM SCT250